Time;durP1;ratioP1;P1;durP2;ratioP2;P2;SDS_P1;SDS_P2;PMS_P1;PMS_P2;Temp;Humidity;BMP_temperature;BMP_pressure;BME280_temperature;BME280_humidity;BME280_pressure;Samples;Min_cycle;Max_cycle;Signal;HPM_P1;HPM_P2
2023/05/16 00:00:13;;;;;;;41.88;9.27;;;16.40;92.40;;;;;;4985236;28;20097;-55
2023/05/16 00:02:39;;;;;;;54.95;8.43;;;16.40;92.40;;;;;;4983638;28;20042;-54
2023/05/16 00:05:06;;;;;;;40.38;9.10;;;16.40;92.40;;;;;;4983515;28;20023;-54
2023/05/16 00:07:32;;;;;;;36.40;7.35;;;16.40;92.40;;;;;;4985039;28;20392;-55
2023/05/16 00:09:58;;;;;;;29.23;7.35;;;16.40;92.40;;;;;;4984309;28;20041;-54
2023/05/16 00:12:24;;;;;;;46.97;8.30;;;16.30;92.40;;;;;;4984910;28;20058;-54
2023/05/16 00:14:51;;;;;;;40.10;8.63;;;16.30;92.40;;;;;;4981806;28;20059;-54
2023/05/16 00:17:18;;;;;;;44.53;8.25;;;16.30;92.40;;;;;;4982924;28;20039;-55
2023/05/16 00:19:46;;;;;;;41.30;8.20;;;16.30;92.40;;;;;;4967773;28;20058;-54
2023/05/16 00:22:11;;;;;;;32.30;6.93;;;16.30;92.40;;;;;;4982695;28;20034;-54
2023/05/16 00:24:37;;;;;;;28.08;6.80;;;16.30;92.40;;;;;;4986001;28;20043;-54
2023/05/16 00:27:03;;;;;;;33.95;7.35;;;16.30;92.50;;;;;;4987436;28;20034;-54
2023/05/16 00:29:31;;;;;;;38.22;6.97;;;16.30;92.40;;;;;;4988929;28;20519;-54
2023/05/16 00:31:57;;;;;;;28.25;6.47;;;16.30;92.40;;;;;;5002603;28;20035;-54
2023/05/16 00:34:22;;;;;;;28.30;7.10;;;16.30;92.40;;;;;;4988516;28;20031;-54
2023/05/16 00:36:52;;;;;;;39.60;7.03;;;16.30;92.50;;;;;;4987195;28;20031;-55
2023/05/16 00:39:17;;;;;;;38.03;7.22;;;16.20;92.50;;;;;;4988682;28;20031;-54
2023/05/16 00:41:43;;;;;;;28.95;6.25;;;16.20;92.50;;;;;;4988297;28;20026;-55
2023/05/16 00:44:09;;;;;;;43.70;7.60;;;16.20;92.50;;;;;;4987118;28;20034;-54
2023/05/16 00:46:34;;;;;;;22.90;5.70;;;16.20;92.50;;;;;;4987149;28;20033;-55
2023/05/16 00:49:00;;;;;;;23.42;6.22;;;16.20;92.60;;;;;;4987533;28;20367;-54
2023/05/16 00:51:26;;;;;;;34.17;6.88;;;16.10;92.60;;;;;;4984935;28;20018;-54
2023/05/16 00:53:51;;;;;;;29.05;6.40;;;16.10;92.60;;;;;;4987507;28;20057;-55
2023/05/16 00:56:17;;;;;;;27.55;6.40;;;16.10;92.60;;;;;;4986746;28;20043;-55
2023/05/16 00:58:43;;;;;;;20.63;5.72;;;16.10;92.60;;;;;;4986561;28;20035;-55
2023/05/16 01:01:08;;;;;;;20.92;5.15;;;16.10;92.70;;;;;;5018017;28;20039;-54
2023/05/16 01:03:34;;;;;;;24.52;5.50;;;16.10;92.60;;;;;;4986010;28;20049;-54
2023/05/16 01:05:59;;;;;;;19.27;5.25;;;16.10;92.60;;;;;;4986591;28;20439;-54
2023/05/16 01:08:25;;;;;;;25.10;5.65;;;16.10;92.60;;;;;;4986261;28;20027;-55
2023/05/16 01:10:59;;;;;;;23.88;5.18;;;16.10;92.60;;;;;;4987964;28;20081;-55
2023/05/16 01:13:52;;;;;;;20.88;5.90;;;16.00;92.60;;;;;;4986989;28;20046;-54
2023/05/16 01:16:31;;;;;;;16.25;4.82;;;16.00;92.70;;;;;;4986153;28;20113;-55
2023/05/16 01:19:35;;;;;;;20.25;5.55;;;16.00;92.70;;;;;;4988091;28;20070;-54
2023/05/16 01:22:36;;;;;;;18.58;6.25;;;16.00;92.70;;;;;;4987997;28;20031;-54
2023/05/16 01:25:20;;;;;;;17.67;6.25;;;16.00;92.70;;;;;;4967822;29;20027;-54
2023/05/16 01:27:46;;;;;;;13.95;5.70;;;16.00;92.70;;;;;;4967479;29;20073;-54
2023/05/16 01:30:18;;;;;;;23.13;5.38;;;16.00;92.80;;;;;;4967459;29;20481;-54
2023/05/16 01:32:43;;;;;;;16.63;4.93;;;16.00;92.70;;;;;;4967495;29;20051;-54
2023/05/16 01:35:09;;;;;;;22.13;5.60;;;16.00;92.80;;;;;;4954691;28;20045;-54
2023/05/16 01:37:37;;;;;;;24.65;5.30;;;16.00;92.70;;;;;;4970173;28;20039;-55
2023/05/16 01:40:08;;;;;;;16.95;4.68;;;15.90;92.70;;;;;;4986486;28;20039;-55
2023/05/16 01:42:36;;;;;;;12.32;5.25;;;15.90;92.70;;;;;;4986556;28;20026;-55
2023/05/16 01:45:07;;;;;;;17.17;5.03;;;15.90;92.80;;;;;;4986494;28;20054;-55
2023/05/16 01:47:33;;;;;;;16.33;4.95;;;15.90;92.80;;;;;;4987760;28;20057;-54
2023/05/16 01:50:09;;;;;;;15.07;5.43;;;15.90;92.80;;;;;;5002464;28;20030;-54
2023/05/16 01:52:39;;;;;;;19.83;5.28;;;15.90;92.80;;;;;;4985616;28;20051;-54
2023/05/16 01:55:11;;;;;;;21.48;5.57;;;15.90;93.10;;;;;;4984698;28;20508;-55
2023/05/16 01:57:36;;;;;;;15.95;5.22;;;15.90;92.80;;;;;;4985837;28;20066;-54
2023/05/16 02:00:02;;;;;;;9.63;4.75;;;15.80;92.80;;;;;;4966225;28;20031;-54
2023/05/16 02:02:27;;;;;;;14.05;5.03;;;15.90;92.90;;;;;;4981052;28;20380;-55
2023/05/16 02:04:53;;;;;;;18.63;5.20;;;15.90;92.90;;;;;;4985092;28;20030;-54
2023/05/16 02:07:18;;;;;;;15.93;5.25;;;15.80;92.90;;;;;;4985507;28;20062;-54
2023/05/16 02:09:44;;;;;;;22.35;5.28;;;15.80;92.90;;;;;;4985575;28;20097;-54
2023/05/16 02:12:09;;;;;;;15.55;5.20;;;15.80;92.90;;;;;;4969242;28;20042;-55
2023/05/16 02:14:35;;;;;;;15.25;5.00;;;15.80;92.90;;;;;;4987337;28;20053;-55
2023/05/16 02:17:00;;;;;;;13.05;4.72;;;15.80;92.90;;;;;;4984850;28;20050;-54
2023/05/16 02:19:26;;;;;;;12.65;5.18;;;15.80;92.90;;;;;;4986714;28;20572;-55
2023/05/16 02:21:51;;;;;;;16.42;5.18;;;15.80;92.90;;;;;;4986697;28;20051;-54
2023/05/16 02:24:17;;;;;;;16.52;5.13;;;15.80;92.90;;;;;;4985313;28;20046;-54
2023/05/16 02:26:43;;;;;;;15.63;4.65;;;15.80;93.00;;;;;;4986687;28;20110;-54
2023/05/16 02:29:08;;;;;;;11.10;4.88;;;15.80;93.00;;;;;;4986292;28;20456;-54
2023/05/16 02:31:34;;;;;;;10.45;4.55;;;15.80;93.00;;;;;;4985289;28;20073;-54
2023/05/16 02:34:00;;;;;;;9.05;4.00;;;15.80;93.00;;;;;;4985618;28;20045;-55
2023/05/16 02:36:25;;;;;;;11.50;4.82;;;15.80;93.00;;;;;;4969074;28;20121;-54
2023/05/16 02:38:51;;;;;;;14.48;5.00;;;15.80;93.00;;;;;;4984941;28;20475;-54
2023/05/16 02:41:17;;;;;;;10.38;4.55;;;15.80;93.00;;;;;;4985074;28;20089;-54
2023/05/16 02:43:45;;;;;;;11.43;5.00;;;15.80;93.10;;;;;;4985351;28;20050;-55
2023/05/16 02:46:27;;;;;;;14.05;4.93;;;15.80;93.10;;;;;;4984377;28;20027;-54
2023/05/16 02:48:53;;;;;;;12.32;4.40;;;15.80;93.10;;;;;;4984822;28;20217;-54
2023/05/16 02:51:23;;;;;;;10.27;4.63;;;15.80;93.20;;;;;;4983574;28;20106;-54
2023/05/16 02:53:48;;;;;;;10.73;4.30;;;15.70;93.20;;;;;;4984858;28;20070;-55
2023/05/16 02:56:14;;;;;;;11.43;5.50;;;15.70;93.20;;;;;;4985808;28;20026;-54
2023/05/16 02:58:40;;;;;;;11.52;5.60;;;15.70;93.20;;;;;;4968940;28;20500;-54
2023/05/16 03:01:06;;;;;;;13.07;5.85;;;15.70;93.30;;;;;;4983472;28;20027;-54
2023/05/16 03:03:34;;;;;;;11.15;5.68;;;15.70;93.30;;;;;;4983503;28;20052;-54
2023/05/16 03:05:59;;;;;;;14.40;5.75;;;15.70;93.30;;;;;;5016511;28;20023;-55
2023/05/16 03:08:25;;;;;;;11.18;5.75;;;15.70;93.40;;;;;;4986445;28;20039;-54
2023/05/16 03:10:50;;;;;;;11.35;5.43;;;15.70;93.40;;;;;;4983853;28;20030;-54
2023/05/16 03:13:16;;;;;;;11.73;5.43;;;15.60;93.40;;;;;;4965658;28;20122;-55
2023/05/16 03:15:41;;;;;;;12.25;5.30;;;15.70;93.40;;;;;;4966777;29;20043;-54
2023/05/16 03:18:07;;;;;;;13.50;6.03;;;15.70;93.40;;;;;;4984227;28;20035;-55
2023/05/16 03:20:32;;;;;;;12.93;6.00;;;15.60;93.40;;;;;;4985228;28;20073;-54
2023/05/16 03:22:58;;;;;;;13.55;5.53;;;15.60;93.40;;;;;;4984457;28;20045;-54
2023/05/16 03:25:23;;;;;;;10.10;6.05;;;15.60;93.40;;;;;;4985938;28;20030;-55
2023/05/16 03:27:49;;;;;;;10.88;5.60;;;15.60;93.50;;;;;;4984222;28;20057;-55
2023/05/16 03:30:15;;;;;;;10.48;5.35;;;15.60;93.50;;;;;;5016176;28;20068;-54
2023/05/16 03:32:40;;;;;;;16.42;6.20;;;15.60;93.50;;;;;;4985287;28;20114;-54
2023/05/16 03:35:06;;;;;;;14.82;6.57;;;15.60;93.60;;;;;;4984723;28;20031;-54
2023/05/16 03:37:31;;;;;;;11.32;6.03;;;15.60;93.60;;;;;;4984256;28;20034;-55
2023/05/16 03:39:57;;;;;;;16.17;5.90;;;15.50;93.60;;;;;;4968475;28;20111;-54
2023/05/16 03:42:22;;;;;;;11.90;6.50;;;15.50;93.60;;;;;;4984624;28;20034;-54
2023/05/16 03:44:48;;;;;;;8.38;6.30;;;15.50;93.70;;;;;;4985865;28;20103;-54
2023/05/16 03:47:14;;;;;;;11.05;7.05;;;15.50;93.70;;;;;;4984474;28;20030;-54
2023/05/16 03:49:39;;;;;;;78.35;14.25;;;15.50;93.70;;;;;;4984520;28;20050;-54
2023/05/16 03:52:05;;;;;;;57.22;10.70;;;15.50;93.70;;;;;;4983575;28;20050;-54
2023/05/16 03:54:31;;;;;;;44.72;10.80;;;15.50;93.70;;;;;;4984401;28;20119;-54
2023/05/16 03:56:57;;;;;;;58.78;11.13;;;15.40;93.80;;;;;;4983929;28;20049;-54
2023/05/16 03:59:22;;;;;;;50.60;10.20;;;15.40;93.80;;;;;;4987695;28;20042;-54
2023/05/16 04:01:48;;;;;;;32.88;9.48;;;15.40;93.80;;;;;;4989032;28;20034;-54
2023/05/16 04:04:14;;;;;;;33.92;10.02;;;15.40;93.80;;;;;;5003772;28;20114;-54
2023/05/16 04:06:40;;;;;;;28.02;9.43;;;15.40;93.80;;;;;;4987668;28;20133;-54
2023/05/16 04:09:05;;;;;;;24.10;9.27;;;15.50;93.90;;;;;;4988740;28;20345;-54
2023/05/16 04:11:31;;;;;;;23.48;8.77;;;15.40;93.80;;;;;;4967884;28;20090;-54
2023/05/16 04:13:57;;;;;;;28.40;8.93;;;15.40;93.80;;;;;;4977321;28;20038;-54
2023/05/16 04:16:23;;;;;;;26.73;8.57;;;15.40;93.80;;;;;;4988581;28;20041;-54
2023/05/16 04:18:48;;;;;;;40.45;10.13;;;15.40;93.80;;;;;;4987702;28;20094;-54
2023/05/16 04:21:14;;;;;;;31.63;9.30;;;15.40;93.80;;;;;;4988503;28;20031;-55
2023/05/16 04:23:40;;;;;;;32.17;8.85;;;15.40;93.90;;;;;;4987249;28;20374;-54
2023/05/16 04:26:06;;;;;;;28.25;9.15;;;15.40;93.80;;;;;;4988885;28;20030;-54
2023/05/16 04:28:31;;;;;;;31.77;8.15;;;15.40;93.80;;;;;;4987516;28;20106;-54
2023/05/16 04:30:57;;;;;;;31.10;8.75;;;15.40;93.90;;;;;;4987665;28;20054;-54
2023/05/16 04:33:23;;;;;;;24.00;7.35;;;15.40;93.90;;;;;;4969649;28;20036;-54
2023/05/16 04:35:48;;;;;;;26.00;7.95;;;15.40;93.90;;;;;;4987094;28;20046;-54
2023/05/16 04:38:14;;;;;;;26.98;8.15;;;15.40;94.00;;;;;;4987243;28;20045;-54
2023/05/16 04:40:40;;;;;;;28.33;8.13;;;15.40;94.00;;;;;;4987851;28;20035;-54
2023/05/16 04:43:06;;;;;;;25.48;8.13;;;15.40;94.00;;;;;;4987927;28;20031;-54
2023/05/16 04:45:32;;;;;;;27.02;8.15;;;15.40;93.90;;;;;;4986516;28;20087;-54
2023/05/16 04:47:57;;;;;;;22.90;7.70;;;15.40;93.90;;;;;;4988403;28;20054;-54
2023/05/16 04:50:23;;;;;;;17.42;7.70;;;15.40;93.90;;;;;;4988998;28;20031;-54
2023/05/16 04:52:49;;;;;;;23.15;8.32;;;15.40;93.90;;;;;;4986479;28;20038;-55
2023/05/16 04:55:15;;;;;;;20.55;7.57;;;15.40;93.90;;;;;;4986947;28;20050;-54
2023/05/16 04:57:40;;;;;;;24.00;7.70;;;15.40;93.90;;;;;;4967624;28;20448;-54
2023/05/16 05:00:09;;;;;;;22.30;7.15;;;15.40;93.90;;;;;;4983866;28;20038;-54
2023/05/16 05:02:34;;;;;;;24.45;7.80;;;15.40;94.00;;;;;;4987824;28;20039;-54
2023/05/16 05:05:00;;;;;;;18.17;7.60;;;15.40;94.10;;;;;;5019610;28;20045;-54
2023/05/16 05:07:27;;;;;;;18.65;8.02;;;15.40;94.20;;;;;;4989272;28;20030;-54
2023/05/16 05:09:54;;;;;;;23.92;7.30;;;15.40;94.20;;;;;;4988778;28;20043;-54
2023/05/16 05:12:20;;;;;;;26.58;7.60;;;15.40;94.20;;;;;;4987979;28;20122;-54
2023/05/16 05:14:46;;;;;;;23.42;7.25;;;15.40;94.20;;;;;;4987312;28;20099;-54
2023/05/16 05:17:12;;;;;;;16.42;6.55;;;15.40;94.30;;;;;;4985890;28;20101;-54
2023/05/16 05:19:37;;;;;;;22.98;6.68;;;15.40;94.20;;;;;;4986167;28;20034;-54
2023/05/16 05:22:03;;;;;;;15.15;6.20;;;15.40;94.30;;;;;;4986454;28;20061;-54
2023/05/16 05:24:28;;;;;;;23.80;7.55;;;15.40;94.20;;;;;;4986284;28;20072;-54
2023/05/16 05:26:54;;;;;;;19.70;7.45;;;15.40;94.20;;;;;;4985173;28;20042;-54
2023/05/16 05:29:20;;;;;;;17.05;6.88;;;15.40;94.20;;;;;;4970252;28;20041;-54
2023/05/16 05:31:46;;;;;;;18.00;6.90;;;15.40;94.20;;;;;;4986516;28;20033;-55
2023/05/16 05:34:11;;;;;;;15.68;7.18;;;15.40;94.20;;;;;;4986684;28;20019;-54
2023/05/16 05:36:37;;;;;;;22.65;6.65;;;15.40;94.20;;;;;;4986127;28;20045;-54
2023/05/16 05:39:02;;;;;;;22.73;7.13;;;15.30;94.20;;;;;;4985514;28;20054;-54
2023/05/16 05:41:28;;;;;;;17.67;6.88;;;15.30;94.20;;;;;;4985504;28;20034;-54
2023/05/16 05:43:54;;;;;;;19.52;6.40;;;15.30;94.20;;;;;;4986145;28;20027;-54
2023/05/16 05:46:19;;;;;;;12.43;5.97;;;15.30;94.10;;;;;;4985397;28;20023;-54
2023/05/16 05:48:45;;;;;;;16.70;6.25;;;15.40;94.20;;;;;;4985796;28;20053;-54
2023/05/16 05:51:12;;;;;;;14.40;5.80;;;15.30;94.50;;;;;;4984459;28;20336;-55
2023/05/16 05:53:38;;;;;;;13.93;6.47;;;15.30;94.10;;;;;;4984819;28;20034;-54
2023/05/16 05:56:04;;;;;;;12.60;6.63;;;15.40;94.10;;;;;;4987290;28;20039;-54
2023/05/16 05:58:29;;;;;;;14.85;6.43;;;15.40;94.10;;;;;;4984543;28;20035;-54
2023/05/16 06:00:55;;;;;;;16.00;6.07;;;15.40;94.10;;;;;;5017821;28;20035;-54
2023/05/16 06:03:21;;;;;;;14.25;6.82;;;15.40;94.10;;;;;;4985655;28;20050;-54
2023/05/16 06:05:46;;;;;;;13.63;5.82;;;15.40;94.10;;;;;;5017920;28;20326;-54
2023/05/16 06:08:12;;;;;;;15.85;5.38;;;15.40;94.10;;;;;;5017244;28;20166;-54
2023/05/16 06:10:38;;;;;;;19.30;6.82;;;15.40;94.10;;;;;;4986620;28;20034;-54
2023/05/16 06:13:03;;;;;;;12.88;5.70;;;15.40;94.00;;;;;;4983930;28;20034;-54
2023/05/16 06:15:29;;;;;;;10.30;5.55;;;15.40;94.00;;;;;;4985025;28;20035;-54
2023/05/16 06:17:55;;;;;;;10.52;5.57;;;15.40;94.00;;;;;;4986832;28;20031;-54
2023/05/16 06:20:21;;;;;;;9.70;5.28;;;15.40;94.00;;;;;;4986154;28;20110;-54
2023/05/16 06:22:46;;;;;;;12.38;5.50;;;15.40;94.00;;;;;;4986066;28;20066;-54
2023/05/16 06:25:12;;;;;;;10.32;5.13;;;15.40;94.00;;;;;;4985793;28;20078;-54
2023/05/16 06:27:37;;;;;;;11.75;5.57;;;15.40;94.00;;;;;;4985133;28;20058;-54
2023/05/16 06:30:03;;;;;;;10.45;5.75;;;15.40;94.00;;;;;;4984284;28;20074;-54
2023/05/16 06:32:29;;;;;;;13.27;5.50;;;15.40;93.90;;;;;;4985651;28;20114;-54
2023/05/16 06:34:55;;;;;;;15.98;5.88;;;15.40;93.90;;;;;;4986695;28;20356;-54
2023/05/16 06:37:22;;;;;;;9.70;5.78;;;15.40;93.90;;;;;;4987136;28;20053;-54
2023/05/16 06:39:47;;;;;;;10.80;5.50;;;15.40;93.90;;;;;;4985034;28;20078;-54
2023/05/16 06:42:13;;;;;;;12.82;5.78;;;15.40;93.90;;;;;;4985946;28;20034;-60
2023/05/16 06:44:38;;;;;;;8.68;5.10;;;15.40;93.80;;;;;;4985233;28;20499;-60
2023/05/16 06:47:04;;;;;;;8.20;5.25;;;15.40;93.80;;;;;;4986385;28;20130;-60
2023/05/16 06:49:30;;;;;;;10.00;5.32;;;15.40;93.80;;;;;;4967720;28;20058;-60
2023/05/16 06:51:55;;;;;;;8.45;5.32;;;15.40;93.80;;;;;;4973826;28;20042;-59
2023/05/16 06:54:21;;;;;;;9.10;5.32;;;15.40;93.70;;;;;;4986486;28;20041;-60
2023/05/16 06:56:46;;;;;;;9.10;4.93;;;15.40;93.70;;;;;;4985725;28;20042;-60
2023/05/16 06:59:12;;;;;;;8.30;5.00;;;15.40;93.70;;;;;;4985939;28;20031;-60
2023/05/16 07:01:37;;;;;;;9.80;5.22;;;15.40;93.70;;;;;;4985502;28;20045;-60
2023/05/16 07:04:03;;;;;;;9.98;5.53;;;15.40;93.60;;;;;;4983963;28;20093;-60
2023/05/16 07:06:28;;;;;;;10.43;5.40;;;15.40;93.60;;;;;;4985879;28;20027;-59
2023/05/16 07:08:54;;;;;;;10.35;5.88;;;15.40;93.60;;;;;;4984368;28;20030;-60
2023/05/16 07:11:20;;;;;;;12.15;6.53;;;15.40;93.60;;;;;;4984084;28;20080;-59
2023/05/16 07:13:45;;;;;;;17.60;6.45;;;15.40;93.60;;;;;;4986081;28;20023;-60
2023/05/16 07:16:11;;;;;;;9.70;5.93;;;15.40;93.70;;;;;;4983435;28;20035;-60
2023/05/16 07:18:37;;;;;;;16.25;6.53;;;15.40;93.60;;;;;;4983358;28;20078;-60
2023/05/16 07:21:03;;;;;;;13.02;5.88;;;15.40;93.60;;;;;;4970185;28;20041;-60
2023/05/16 07:23:28;;;;;;;14.77;5.93;;;15.40;93.60;;;;;;4986824;28;20052;-60
2023/05/16 07:25:54;;;;;;;13.82;5.97;;;15.40;93.50;;;;;;4985347;28;20034;-60
2023/05/16 07:28:20;;;;;;;11.85;5.95;;;15.40;93.50;;;;;;4984286;28;20050;-60
2023/05/16 07:30:46;;;;;;;15.77;6.38;;;15.50;93.50;;;;;;5016904;28;20031;-60
2023/05/16 07:33:11;;;;;;;21.05;6.53;;;15.50;93.50;;;;;;4984390;28;20113;-60
2023/05/16 07:35:37;;;;;;;22.98;8.13;;;15.50;93.40;;;;;;4984560;28;20034;-60
2023/05/16 07:38:04;;;;;;;10.27;6.50;;;15.50;93.40;;;;;;4985173;28;20062;-60
2023/05/16 07:40:30;;;;;;;21.20;7.63;;;15.50;93.40;;;;;;4984062;28;20053;-60
2023/05/16 07:42:55;;;;;;;20.13;6.80;;;15.50;93.40;;;;;;4967103;28;20034;-59
2023/05/16 07:45:21;;;;;;;15.77;7.50;;;15.50;93.50;;;;;;4985453;28;20126;-60
2023/05/16 07:47:46;;;;;;;36.13;8.60;;;15.60;93.30;;;;;;4983892;28;20115;-60
2023/05/16 07:50:12;;;;;;;26.33;8.15;;;15.60;93.30;;;;;;4985078;28;20066;-60
2023/05/16 07:52:37;;;;;;;36.95;8.95;;;15.50;93.30;;;;;;5015022;28;20043;-60
2023/05/16 07:55:03;;;;;;;49.28;11.23;;;15.60;93.30;;;;;;4984253;28;20038;-60
2023/05/16 07:57:29;;;;;;;39.70;11.30;;;15.60;93.60;;;;;;4985375;28;20038;-60
2023/05/16 07:59:54;;;;;;;57.67;12.43;;;15.70;93.30;;;;;;4983359;28;20027;-60
2023/05/16 08:02:21;;;;;;;30.23;9.77;;;15.70;93.20;;;;;;4981270;28;20349;-60
2023/05/16 08:04:49;;;;;;;58.00;11.48;;;15.70;93.10;;;;;;4977849;28;20085;-60
2023/05/16 08:07:14;;;;;;;43.83;10.80;;;15.70;93.00;;;;;;5008477;28;20405;-60
2023/05/16 08:09:40;;;;;;;39.80;10.68;;;15.80;93.00;;;;;;4985594;28;20164;-60
2023/05/16 08:12:06;;;;;;;48.38;11.52;;;15.80;93.00;;;;;;4985942;28;20070;-60
2023/05/16 08:14:31;;;;;;;47.42;11.30;;;15.90;92.90;;;;;;4967820;28;20031;-60
2023/05/16 08:16:58;;;;;;;65.80;13.73;;;15.90;92.80;;;;;;4983108;28;20050;-60
2023/05/16 08:19:23;;;;;;;60.08;12.30;;;15.90;92.80;;;;;;4985586;28;20107;-60
2023/05/16 08:21:49;;;;;;;107.57;19.83;;;15.90;92.80;;;;;;4984921;28;20079;-60
2023/05/16 08:24:15;;;;;;;55.58;15.43;;;15.90;92.80;;;;;;4983492;28;20038;-60
2023/05/16 08:26:40;;;;;;;79.55;16.23;;;16.00;93.00;;;;;;4983218;28;20165;-59
2023/05/16 08:29:06;;;;;;;60.17;13.45;;;16.00;92.90;;;;;;4983269;28;20069;-59
2023/05/16 08:31:31;;;;;;;64.38;13.50;;;16.10;92.90;;;;;;4986984;28;20027;-60
2023/05/16 08:33:57;;;;;;;47.17;13.32;;;16.00;92.70;;;;;;4978393;28;20027;-60
2023/05/16 08:36:23;;;;;;;55.80;14.55;;;16.10;92.70;;;;;;4984833;28;20030;-59
2023/05/16 08:38:49;;;;;;;54.83;15.05;;;16.10;92.70;;;;;;4983011;28;20042;-60
2023/05/16 08:41:14;;;;;;;69.00;16.50;;;16.10;92.70;;;;;;4966478;28;20078;-60
2023/05/16 08:43:40;;;;;;;84.68;16.85;;;16.10;92.80;;;;;;4982662;28;20038;-60
2023/05/16 08:46:06;;;;;;;64.80;15.57;;;16.10;92.80;;;;;;4986642;28;20026;-60
2023/05/16 08:48:32;;;;;;;65.03;14.57;;;16.10;93.00;;;;;;4987635;28;20114;-59
2023/05/16 08:50:58;;;;;;;55.90;15.40;;;16.20;92.70;;;;;;4980180;28;20069;-60
2023/05/16 08:53:29;;;;;;;73.82;17.25;;;16.20;92.60;;;;;;4986970;28;20035;-60
2023/05/16 08:55:54;;;;;;;96.07;19.10;;;16.20;92.60;;;;;;4986696;28;20193;-60
2023/05/16 08:58:20;;;;;;;87.35;16.95;;;16.20;92.60;;;;;;4986409;28;20047;-60
2023/05/16 09:00:46;;;;;;;86.28;17.95;;;16.30;92.60;;;;;;5017109;28;20023;-60
2023/05/16 09:03:11;;;;;;;151.00;23.90;;;16.30;92.50;;;;;;4984607;28;20199;-60
2023/05/16 09:05:37;;;;;;;98.55;18.55;;;16.30;92.50;;;;;;4983460;28;20035;-59
2023/05/16 09:08:02;;;;;;;81.28;18.40;;;16.30;92.40;;;;;;4985340;28;20570;-60
2023/05/16 09:10:28;;;;;;;87.32;17.92;;;16.30;92.40;;;;;;4983097;28;20472;-60
2023/05/16 09:12:53;;;;;;;110.78;21.17;;;16.40;92.50;;;;;;4984876;28;20073;-60
2023/05/16 09:15:20;;;;;;;104.88;19.98;;;16.40;92.50;;;;;;4985579;28;20034;-60
2023/05/16 09:17:46;;;;;;;90.53;19.40;;;16.40;92.30;;;;;;4984384;28;20175;-60
2023/05/16 09:20:16;;;;;;;77.78;19.15;;;16.40;92.30;;;;;;4991945;28;20038;-60
2023/05/16 09:22:55;;;;;;;77.95;18.13;;;16.40;92.30;;;;;;4987208;28;20035;-60
2023/05/16 09:25:21;;;;;;;71.88;18.08;;;16.40;92.20;;;;;;4986644;28;20039;-60
2023/05/16 09:27:47;;;;;;;61.50;17.48;;;16.50;92.20;;;;;;4970090;28;20049;-59
2023/05/16 09:30:15;;;;;;;73.95;18.13;;;16.50;92.10;;;;;;4986811;28;20046;-60
2023/05/16 09:32:44;;;;;;;83.55;18.25;;;16.50;92.10;;;;;;4986824;28;20085;-60
2023/05/16 09:35:14;;;;;;;69.07;16.60;;;16.50;92.10;;;;;;4986629;28;20035;-59
2023/05/16 09:37:44;;;;;;;66.20;18.70;;;16.60;92.10;;;;;;4986100;28;20412;-60
2023/05/16 09:40:09;;;;;;;68.70;17.67;;;16.50;92.00;;;;;;4985772;28;20027;-59
2023/05/16 09:42:35;;;;;;;67.43;17.65;;;16.50;92.00;;;;;;4976258;28;20045;-60
2023/05/16 09:45:00;;;;;;;82.93;19.48;;;16.50;92.00;;;;;;4981932;28;20097;-60
2023/05/16 09:47:26;;;;;;;74.40;19.80;;;16.60;92.00;;;;;;4969319;28;20135;-60
2023/05/16 09:49:53;;;;;;;75.10;18.02;;;16.50;92.00;;;;;;4986115;28;20037;-60
2023/05/16 09:52:18;;;;;;;55.35;17.67;;;16.60;92.00;;;;;;4983110;28;20030;-60
2023/05/16 09:54:45;;;;;;;86.35;21.73;;;16.50;92.10;;;;;;4984159;28;20102;-60
2023/05/16 09:57:10;;;;;;;67.15;18.67;;;16.60;92.30;;;;;;4976046;28;20050;-61
2023/05/16 09:59:37;;;;;;;77.00;18.33;;;16.50;92.20;;;;;;4974920;28;20499;-60
2023/05/16 10:02:03;;;;;;;76.95;19.98;;;16.50;92.20;;;;;;4974263;28;20058;-60
2023/05/16 10:04:29;;;;;;;60.92;19.23;;;16.50;92.30;;;;;;4974303;28;20030;-60
2023/05/16 10:06:56;;;;;;;54.75;17.73;;;16.50;92.50;;;;;;4959102;28;20517;-53
2023/05/16 10:09:21;;;;;;;63.65;20.88;;;16.50;92.70;;;;;;4972690;28;20154;-54
2023/05/16 10:11:47;;;;;;;83.85;21.67;;;16.50;92.60;;;;;;4958289;28;20091;-53
2023/05/16 10:14:13;;;;;;;53.08;18.80;;;16.40;92.80;;;;;;4958984;28;20051;-53
2023/05/16 10:16:40;;;;;;;63.83;19.70;;;16.40;93.10;;;;;;4989116;28;20058;-54
2023/05/16 10:19:06;;;;;;;56.85;21.23;;;16.40;92.90;;;;;;4958140;28;20027;-54
2023/05/16 10:21:31;;;;;;;57.85;19.42;;;16.40;93.30;;;;;;4958004;28;20039;-54
2023/05/16 10:23:58;;;;;;;65.68;19.85;;;16.40;93.50;;;;;;4958105;28;20055;-53
2023/05/16 10:26:23;;;;;;;52.75;19.05;;;16.40;93.40;;;;;;4974574;28;20030;-53
2023/05/16 10:28:49;;;;;;;59.90;19.48;;;16.30;93.40;;;;;;4972981;28;20042;-54
2023/05/16 10:31:15;;;;;;;51.10;19.83;;;16.40;93.50;;;;;;4962064;28;20049;-54
2023/05/16 10:33:41;;;;;;;66.07;21.48;;;16.40;93.60;;;;;;4975493;28;20034;-53
2023/05/16 10:36:09;;;;;;;61.10;20.15;;;16.40;93.80;;;;;;4958576;28;20046;-53
2023/05/16 10:38:35;;;;;;;55.70;20.75;;;16.40;94.10;;;;;;4973774;28;20152;-54
2023/05/16 10:41:01;;;;;;;71.15;21.67;;;16.40;94.10;;;;;;4974571;28;20034;-54
2023/05/16 10:43:29;;;;;;;53.97;21.63;;;16.40;94.30;;;;;;4957468;28;20042;-54
2023/05/16 10:46:01;;;;;;;57.25;22.10;;;16.40;94.30;;;;;;4974654;28;20038;-53
2023/05/16 10:48:34;;;;;;;67.60;21.42;;;16.40;94.40;;;;;;4974129;28;20045;-54
2023/05/16 10:51:01;;;;;;;67.15;22.85;;;16.40;94.60;;;;;;4973839;28;20930;-54
2023/05/16 10:53:32;;;;;;;53.85;22.45;;;16.30;94.60;;;;;;4972453;28;20081;-52
2023/05/16 10:56:00;;;;;;;65.47;21.58;;;16.30;94.80;;;;;;4988866;28;20274;-53
2023/05/16 10:58:35;;;;;;;62.15;23.90;;;16.30;94.80;;;;;;4974111;28;20039;-53
2023/05/16 11:01:26;;;;;;;69.72;25.08;;;16.30;95.10;;;;;;4975766;28;20027;-53
2023/05/16 11:04:00;;;;;;;59.42;22.13;;;16.30;95.30;;;;;;4974853;28;20382;-53
2023/05/16 11:06:33;;;;;;;61.78;22.65;;;16.30;95.20;;;;;;4976932;28;20034;-53
2023/05/16 11:09:12;;;;;;;70.45;23.52;;;16.30;95.30;;;;;;4975364;28;20022;-53
2023/05/16 11:11:55;;;;;;;62.38;22.38;;;16.30;95.30;;;;;;4975264;28;20031;-53
2023/05/16 11:14:32;;;;;;;71.47;21.80;;;16.30;95.40;;;;;;4973286;28;20039;-53
2023/05/16 11:17:01;;;;;;;73.88;21.55;;;16.30;95.50;;;;;;4975161;28;20050;-54
2023/05/16 11:19:46;;;;;;;83.63;22.00;;;16.30;95.60;;;;;;4975891;28;20094;-53
2023/05/16 11:22:19;;;;;;;64.03;21.30;;;16.20;95.70;;;;;;4973277;28;20283;-53
2023/05/16 11:25:05;;;;;;;112.65;25.35;;;16.20;95.80;;;;;;4981587;28;20042;-53
2023/05/16 11:27:32;;;;;;;59.35;19.60;;;16.20;95.80;;;;;;4967221;28;20058;-53
2023/05/16 11:30:04;;;;;;;72.18;20.08;;;16.10;95.80;;;;;;4984649;28;20037;-54
2023/05/16 11:32:30;;;;;;;62.67;18.98;;;16.10;95.70;;;;;;4991211;28;20124;-54
2023/05/16 11:34:56;;;;;;;69.07;20.10;;;16.10;95.60;;;;;;4967899;28;20143;-54
2023/05/16 11:37:21;;;;;;;53.72;18.00;;;16.10;95.60;;;;;;4964950;28;20559;-53
2023/05/16 11:39:47;;;;;;;83.28;18.98;;;16.10;95.60;;;;;;5004175;28;20030;-53
2023/05/16 11:42:13;;;;;;;63.15;17.15;;;16.10;95.70;;;;;;4982637;28;20109;-52
2023/05/16 11:44:42;;;;;;;83.18;18.20;;;16.10;95.80;;;;;;4981371;28;20023;-53
2023/05/16 11:47:07;;;;;;;51.25;16.23;;;16.10;96.00;;;;;;4982187;28;20031;-53
2023/05/16 11:49:34;;;;;;;44.60;16.25;;;16.10;95.90;;;;;;4968717;28;20058;-53
2023/05/16 11:52:00;;;;;;;58.55;15.20;;;16.00;95.80;;;;;;4981801;28;20035;-54
2023/05/16 11:54:25;;;;;;;56.90;16.25;;;16.00;95.70;;;;;;4978849;28;20019;-53
2023/05/16 11:56:51;;;;;;;65.72;17.08;;;16.00;95.70;;;;;;4982640;28;20106;-53
2023/05/16 11:59:17;;;;;;;54.80;16.75;;;16.00;95.80;;;;;;4983698;28;20042;-53
2023/05/16 12:01:43;;;;;;;56.20;15.10;;;16.00;95.80;;;;;;4983011;28;20042;-53
2023/05/16 12:04:09;;;;;;;42.60;14.50;;;15.90;95.80;;;;;;4983194;28;20047;-53
2023/05/16 12:06:35;;;;;;;52.03;15.68;;;16.00;95.90;;;;;;4983099;28;20030;-53
2023/05/16 12:09:09;;;;;;;45.05;14.35;;;15.90;95.90;;;;;;4988622;28;20034;-53
2023/05/16 12:11:37;;;;;;;40.67;14.80;;;15.90;95.90;;;;;;4988842;28;20034;-53
2023/05/16 12:14:03;;;;;;;59.30;15.15;;;15.90;95.90;;;;;;4974598;28;20071;-53
2023/05/16 12:16:28;;;;;;;42.03;14.07;;;15.90;96.10;;;;;;4982765;28;20090;-53
2023/05/16 12:18:55;;;;;;;61.25;15.20;;;15.90;96.00;;;;;;4967249;28;20065;-53
2023/05/16 12:21:21;;;;;;;51.63;13.00;;;15.90;96.00;;;;;;4976734;28;20026;-54
2023/05/16 12:23:46;;;;;;;43.47;13.02;;;15.80;96.00;;;;;;4975398;28;20031;-53
2023/05/16 12:26:12;;;;;;;60.20;13.68;;;15.80;96.00;;;;;;4987334;28;20066;-53
2023/05/16 12:28:38;;;;;;;68.00;14.15;;;15.80;95.90;;;;;;4993706;28;20087;-54
2023/05/16 12:31:10;;;;;;;44.40;13.00;;;15.80;95.90;;;;;;4986711;28;20105;-54